createdAt,value
2018-07-15T00:00:51.963Z,96.20
2018-07-15T00:03:20.124Z,96.40
2018-07-15T00:05:48.404Z,96.60
2018-07-15T00:08:16.566Z,96.90
2018-07-15T00:10:46.497Z,97.20
2018-07-15T00:13:15.195Z,97.30
2018-07-15T00:15:44.396Z,97.40
2018-07-15T00:32:29.977Z,97.80
2018-07-15T00:34:58.100Z,97.80
2018-07-15T00:37:26.225Z,98.10
2018-07-15T00:39:54.403Z,98.20
2018-07-15T00:42:22.545Z,98.40
2018-07-15T00:44:50.668Z,98.50
2018-07-15T00:47:18.806Z,98.50
2018-07-15T00:52:14.834Z,98.70
2018-07-15T00:54:43.000Z,98.70
2018-07-15T00:57:11.126Z,98.80
2018-07-15T00:59:39.315Z,99.00
2018-07-15T01:02:07.444Z,99.20
2018-07-15T01:07:03.571Z,99.30
2018-07-15T01:09:31.709Z,99.20
2018-07-15T01:11:59.834Z,99.20
2018-07-15T01:14:27.987Z,99.20
2018-07-15T01:16:56.123Z,99.20
2018-07-15T01:19:24.259Z,99.00
2018-07-15T01:24:20.292Z,98.80
2018-07-15T01:26:48.411Z,98.70
2018-07-15T01:29:16.550Z,98.60
2018-07-15T01:34:12.614Z,99.00
2018-07-15T01:36:40.737Z,99.40
2018-07-15T01:39:08.857Z,99.70
2018-07-15T01:41:37.017Z,99.70
2018-07-15T01:47:05.716Z,99.90
2018-07-15T01:49:33.849Z,99.80
2018-07-15T01:52:01.995Z,99.90
2018-07-15T01:54:30.137Z,99.90
2018-07-15T01:56:58.358Z,99.90
2018-07-15T01:59:26.470Z,99.90
2018-07-15T02:01:54.594Z,99.90
2018-07-15T02:04:22.737Z,99.90
2018-07-15T02:06:50.851Z,99.90
2018-07-15T02:09:18.962Z,99.90
2018-07-15T02:11:47.090Z,99.90
2018-07-15T02:14:15.218Z,99.90
2018-07-15T02:16:43.328Z,99.90
2018-07-15T02:19:11.448Z,99.90
2018-07-15T02:21:39.578Z,99.90
2018-07-15T02:24:07.699Z,99.90
2018-07-15T02:26:35.839Z,99.90
2018-07-15T02:29:03.954Z,99.90
2018-07-15T02:31:32.089Z,99.90
2018-07-15T02:34:00.235Z,99.90
2018-07-15T02:36:28.359Z,99.90
2018-07-15T02:38:56.461Z,99.90
2018-07-15T02:41:24.636Z,99.90
2018-07-15T02:43:52.764Z,99.90
2018-07-15T02:46:20.881Z,99.90
2018-07-15T02:48:49.022Z,99.90
2018-07-15T02:51:17.144Z,99.90
2018-07-15T02:53:45.241Z,99.90
2018-07-15T02:56:13.360Z,99.90
2018-07-15T02:58:41.473Z,99.90
2018-07-15T03:03:37.592Z,99.90
2018-07-15T03:06:05.882Z,99.90
2018-07-15T03:08:33.994Z,99.90
2018-07-15T03:11:02.106Z,99.90
2018-07-15T03:13:30.297Z,99.90
2018-07-15T03:15:58.466Z,99.90
2018-07-15T03:18:26.598Z,99.90
2018-07-15T03:20:54.763Z,99.90
2018-07-15T03:23:23.090Z,99.90
2018-07-15T03:25:51.224Z,99.90
2018-07-15T03:28:19.403Z,99.90
2018-07-15T03:30:47.530Z,99.90
2018-07-15T03:33:15.643Z,99.90
2018-07-15T03:35:43.799Z,99.90
2018-07-15T03:38:11.926Z,99.90
2018-07-15T03:40:40.079Z,99.90
2018-07-15T03:43:08.221Z,99.90
2018-07-15T03:45:36.499Z,99.90
2018-07-15T03:48:04.709Z,99.90
2018-07-15T03:50:32.806Z,99.90
2018-07-15T03:53:00.987Z,99.90
2018-07-15T03:55:29.150Z,99.90
2018-07-15T03:57:57.279Z,99.90
2018-07-15T04:00:25.386Z,99.90
2018-07-15T04:02:53.495Z,99.90
2018-07-15T04:07:49.794Z,99.90
2018-07-15T04:10:17.950Z,99.90
2018-07-15T04:12:46.062Z,99.90
2018-07-15T04:15:14.213Z,99.90
2018-07-15T04:17:42.321Z,99.90
2018-07-15T04:20:10.444Z,99.90
2018-07-15T04:22:38.610Z,99.90
2018-07-15T04:25:06.817Z,99.90
2018-07-15T04:27:34.970Z,99.90
2018-07-15T04:30:03.084Z,99.90
2018-07-15T04:32:31.220Z,99.90
2018-07-15T04:34:59.330Z,99.90
2018-07-15T04:37:27.453Z,99.90
2018-07-15T04:39:55.557Z,99.90
2018-07-15T04:42:23.665Z,99.90
2018-07-15T04:44:51.786Z,99.90
2018-07-15T04:47:19.907Z,99.90
2018-07-15T04:49:48.039Z,99.90
2018-07-15T04:52:16.269Z,99.90
2018-07-15T04:54:44.377Z,99.90
2018-07-15T04:57:12.490Z,99.90
2018-07-15T04:59:40.757Z,99.90
2018-07-15T05:02:08.890Z,99.80
2018-07-15T05:04:36.993Z,99.50
2018-07-15T05:07:05.154Z,99.20
2018-07-15T05:09:33.266Z,99.00
2018-07-15T05:12:01.414Z,98.60
2018-07-15T05:14:29.527Z,98.30
2018-07-15T05:16:57.695Z,98.10
2018-07-15T05:19:25.822Z,97.60
2018-07-15T05:21:53.926Z,97.00
2018-07-15T05:24:22.031Z,96.60
2018-07-15T05:26:50.135Z,96.10
2018-07-15T05:29:18.287Z,95.90
2018-07-15T05:31:46.400Z,95.50
2018-07-15T05:34:14.614Z,95.10
2018-07-15T05:36:42.959Z,94.70
2018-07-15T05:39:11.051Z,94.30
2018-07-15T05:41:39.158Z,94.10
2018-07-15T05:46:35.171Z,93.00
2018-07-15T05:49:03.318Z,92.30
2018-07-15T05:51:31.539Z,92.20
2018-07-15T05:53:59.650Z,91.50
2018-07-15T05:56:27.762Z,90.80
2018-07-15T05:58:55.904Z,89.60
2018-07-15T06:01:24.345Z,87.40
2018-07-15T06:03:52.461Z,85.10
2018-07-15T06:06:20.575Z,83.30
2018-07-15T06:08:48.681Z,82.80
2018-07-15T06:11:16.883Z,80.20
2018-07-15T06:13:44.988Z,79.20
2018-07-15T06:16:13.122Z,78.50
2018-07-15T06:18:41.239Z,77.00
2018-07-15T06:21:09.691Z,77.00
2018-07-15T06:23:38.397Z,76.20
2018-07-15T06:26:06.617Z,76.20
2018-07-15T06:28:34.769Z,75.20
2018-07-15T06:31:03.031Z,74.80
2018-07-15T06:33:31.679Z,74.50
2018-07-15T06:36:00.695Z,74.30
2018-07-15T06:38:28.821Z,73.50
2018-07-15T06:40:56.973Z,73.40
2018-07-15T06:43:25.070Z,72.80
2018-07-15T06:45:53.180Z,72.60
2018-07-15T06:48:21.317Z,73.00
2018-07-15T06:50:49.430Z,72.70
2018-07-15T06:53:18.018Z,72.10
2018-07-15T06:55:46.150Z,71.00
2018-07-15T06:58:14.317Z,70.00
2018-07-15T07:00:42.451Z,70.00
2018-07-15T07:03:10.557Z,69.20
2018-07-15T07:05:38.674Z,68.10
2018-07-15T07:08:06.798Z,67.30
2018-07-15T07:10:34.909Z,66.40
2018-07-15T07:13:03.014Z,66.40
2018-07-15T07:15:31.128Z,65.80
2018-07-15T07:17:59.240Z,65.70
2018-07-15T07:20:27.580Z,65.00
2018-07-15T07:22:55.675Z,64.30
2018-07-15T07:25:23.830Z,63.70
2018-07-15T07:30:19.881Z,62.60
2018-07-15T07:35:15.916Z,60.30
2018-07-15T07:37:44.025Z,59.40
2018-07-15T07:40:12.142Z,59.90
2018-07-15T07:42:40.263Z,58.20
2018-07-15T07:45:08.379Z,57.40
2018-07-15T07:47:36.488Z,56.70
2018-07-15T07:50:04.985Z,57.00
2018-07-15T07:52:33.102Z,56.90
2018-07-15T07:55:01.229Z,56.20
2018-07-15T07:57:29.352Z,56.80
2018-07-15T07:59:57.705Z,56.70
2018-07-15T08:02:25.846Z,56.20
2018-07-15T08:04:54.003Z,56.00
2018-07-15T08:07:22.187Z,55.50
2018-07-15T08:09:50.292Z,56.00
2018-07-15T08:12:18.514Z,53.90
2018-07-15T08:14:46.609Z,52.00
2018-07-15T08:19:42.812Z,46.70
2018-07-15T08:22:10.915Z,46.20
2018-07-15T08:24:39.009Z,45.40
2018-07-15T08:27:07.174Z,45.00
2018-07-15T08:29:35.865Z,45.10
2018-07-15T08:34:32.085Z,44.50
2018-07-15T08:37:00.222Z,44.80
2018-07-15T08:39:28.419Z,44.10
2018-07-15T08:41:56.551Z,45.70
2018-07-15T08:44:24.655Z,44.70
2018-07-15T08:46:52.793Z,44.70
2018-07-15T08:49:21.064Z,44.70
2018-07-15T08:51:49.218Z,44.00
2018-07-15T08:54:17.345Z,44.20
2018-07-15T08:56:45.453Z,43.00
2018-07-15T08:59:13.778Z,42.00
2018-07-15T09:01:41.876Z,41.10
2018-07-15T09:04:10.019Z,41.30
2018-07-15T09:09:06.291Z,41.50
2018-07-15T09:11:34.484Z,39.90
2018-07-15T09:14:02.602Z,39.60
2018-07-15T09:16:30.744Z,39.60
2018-07-15T09:18:58.872Z,38.10
2018-07-15T09:23:54.972Z,36.20
2018-07-15T09:26:23.082Z,36.00
2018-07-15T09:28:51.222Z,35.80
2018-07-15T09:31:19.354Z,35.10
2018-07-15T09:33:47.562Z,35.60
2018-07-15T09:36:15.891Z,36.70
2018-07-15T09:38:44.118Z,35.10
2018-07-15T09:41:12.502Z,34.80
2018-07-15T09:43:40.650Z,34.30
2018-07-15T09:46:08.895Z,35.00
2018-07-15T09:48:36.998Z,34.00
2018-07-15T09:51:05.358Z,33.10
2018-07-15T09:53:33.719Z,33.10
2018-07-15T09:56:01.837Z,33.50
2018-07-15T09:58:29.962Z,34.30
2018-07-15T10:00:58.092Z,33.90
2018-07-15T10:03:27.189Z,33.00
2018-07-15T10:05:55.368Z,32.60
2018-07-15T10:08:23.649Z,33.00
2018-07-15T10:10:52.026Z,32.50
2018-07-15T10:13:20.162Z,32.60
2018-07-15T10:15:48.403Z,32.80
2018-07-15T10:18:16.673Z,33.80
2018-07-15T10:20:44.826Z,31.70
2018-07-15T10:23:12.933Z,32.10
2018-07-15T10:28:09.046Z,30.90
2018-07-15T10:30:37.170Z,31.90
2018-07-15T10:33:05.397Z,31.30
2018-07-15T10:35:33.423Z,30.60
2018-07-15T10:38:01.563Z,31.00
2018-07-15T10:40:29.711Z,30.10
2018-07-15T10:42:57.838Z,29.90
2018-07-15T10:45:25.975Z,30.20
2018-07-15T10:47:54.105Z,29.60
2018-07-15T10:50:22.263Z,29.20
2018-07-15T10:52:50.434Z,29.10
2018-07-15T10:55:18.596Z,29.50
2018-07-15T10:57:46.691Z,29.80
2018-07-15T11:00:14.790Z,29.20
2018-07-15T11:02:42.889Z,28.90
2018-07-15T11:05:11.328Z,28.70
2018-07-15T11:07:39.441Z,28.00
2018-07-15T11:10:07.558Z,28.50
2018-07-15T11:12:35.654Z,28.60
2018-07-15T11:15:03.777Z,28.30
2018-07-15T11:17:32.209Z,29.30
2018-07-15T11:20:00.407Z,30.00
2018-07-15T11:22:28.521Z,31.20
2018-07-15T11:24:56.650Z,32.20
2018-07-15T11:27:24.729Z,32.50
2018-07-15T11:29:53.169Z,32.50
2018-07-15T11:32:21.274Z,33.60
2018-07-15T11:34:49.456Z,35.30
2018-07-15T11:37:17.627Z,37.30
2018-07-15T11:39:45.730Z,38.80
2018-07-15T11:42:14.055Z,39.00
2018-07-15T11:44:42.148Z,38.70
2018-07-15T11:47:10.261Z,38.40
2018-07-15T11:49:38.418Z,38.40
2018-07-15T11:52:06.514Z,35.30
2018-07-15T11:54:34.768Z,33.70
2018-07-15T11:57:02.816Z,32.90
2018-07-15T11:59:30.937Z,32.00
2018-07-15T12:01:59.134Z,31.40
2018-07-15T12:04:27.261Z,30.40
2018-07-15T12:06:55.419Z,30.90
2018-07-15T12:09:23.534Z,30.00
2018-07-15T12:11:51.716Z,29.40
2018-07-15T12:14:19.841Z,29.30
2018-07-15T12:16:48.001Z,28.80
2018-07-15T12:19:16.416Z,29.30
2018-07-15T12:21:44.580Z,28.00
2018-07-15T12:24:12.830Z,28.70
2018-07-15T12:26:41.021Z,28.90
2018-07-15T12:29:09.222Z,27.70
2018-07-15T12:31:37.380Z,27.80
2018-07-15T12:34:05.597Z,28.30
2018-07-15T12:36:33.710Z,27.60
2018-07-15T12:39:01.811Z,27.40
2018-07-15T12:41:30.050Z,28.00
2018-07-15T12:43:58.163Z,31.70
2018-07-15T12:46:26.353Z,34.70
2018-07-15T12:48:54.478Z,36.70
2018-07-15T12:51:22.646Z,37.30
2018-07-15T12:53:50.766Z,39.00
2018-07-15T12:56:18.886Z,40.50
2018-07-15T12:58:46.999Z,41.10
2018-07-15T13:01:15.173Z,40.80
2018-07-15T13:03:43.343Z,41.10
2018-07-15T13:06:11.461Z,41.30
2018-07-15T13:08:39.610Z,41.80
2018-07-15T13:11:07.736Z,42.30
2018-07-15T13:13:35.926Z,42.90
2018-07-15T13:16:04.134Z,42.90
2018-07-15T13:18:32.277Z,42.70
2018-07-15T13:21:00.489Z,43.60
2018-07-15T13:23:28.652Z,43.60
2018-07-15T13:25:56.938Z,43.60
2018-07-15T13:28:25.057Z,44.20
2018-07-15T13:30:53.190Z,44.70
2018-07-15T13:33:21.342Z,45.20
2018-07-15T13:35:49.522Z,45.30
2018-07-15T13:38:17.704Z,46.00
2018-07-15T13:40:45.891Z,46.50
2018-07-15T13:43:14.058Z,46.30
2018-07-15T13:45:42.238Z,45.90
2018-07-15T13:48:10.382Z,45.70
2018-07-15T13:50:38.489Z,44.50
2018-07-15T13:53:06.690Z,43.90
2018-07-15T13:55:34.819Z,42.80
2018-07-15T13:58:03.022Z,42.40
2018-07-15T14:00:31.159Z,41.70
2018-07-15T14:02:59.274Z,41.90
2018-07-15T14:05:27.383Z,41.70
2018-07-15T14:07:55.510Z,42.10
2018-07-15T14:10:23.621Z,41.70
2018-07-15T14:12:51.753Z,40.50
2018-07-15T14:15:19.971Z,40.80
2018-07-15T14:17:48.004Z,40.20
2018-07-15T14:20:16.101Z,40.30
2018-07-15T14:22:44.214Z,40.90
2018-07-15T14:25:12.309Z,41.40
2018-07-15T14:28:11.121Z,41.70
2018-07-15T14:30:39.278Z,41.40
2018-07-15T14:33:07.763Z,40.80
2018-07-15T14:35:36.022Z,40.70
2018-07-15T14:38:04.244Z,40.70
2018-07-15T14:40:33.738Z,40.70
2018-07-15T14:43:02.130Z,40.20
2018-07-15T14:45:30.336Z,40.00
2018-07-15T14:47:58.589Z,39.20
2018-07-15T14:50:26.812Z,38.20
2018-07-15T14:52:55.044Z,37.50
2018-07-15T14:55:23.187Z,36.40
2018-07-15T14:57:51.388Z,35.60
2018-07-15T15:00:19.667Z,35.30
2018-07-15T15:02:47.798Z,34.40
2018-07-15T15:05:16.024Z,34.60
2018-07-15T15:07:44.307Z,33.80
2018-07-15T15:10:12.539Z,32.90
2018-07-15T15:12:40.694Z,32.40
2018-07-15T15:15:09.006Z,33.00
2018-07-15T15:17:37.225Z,33.40
2018-07-15T15:20:05.407Z,32.50
2018-07-15T15:22:33.690Z,32.10
2018-07-15T15:25:02.694Z,31.90
2018-07-15T15:27:30.958Z,32.00
2018-07-15T15:29:59.246Z,32.20
2018-07-15T15:32:27.417Z,33.00
2018-07-15T15:34:55.726Z,33.10
2018-07-15T15:37:23.930Z,34.20
2018-07-15T15:39:52.220Z,35.50
2018-07-15T15:42:20.449Z,36.60
2018-07-15T15:44:48.789Z,37.30
2018-07-15T15:47:16.935Z,37.20
2018-07-15T15:49:45.109Z,35.70
2018-07-15T15:52:13.479Z,33.80
2018-07-15T15:54:41.713Z,32.10
2018-07-15T15:57:10.021Z,29.80
2018-07-15T15:59:38.278Z,29.40
2018-07-15T16:02:06.482Z,29.80
2018-07-15T16:04:34.721Z,29.70
2018-07-15T16:07:02.936Z,29.70
2018-07-15T16:09:31.142Z,30.20
2018-07-15T16:11:59.338Z,28.90
2018-07-15T16:14:27.515Z,28.60
2018-07-15T16:16:55.711Z,29.20
2018-07-15T16:19:23.849Z,30.40
2018-07-15T16:21:52.058Z,31.10
2018-07-15T16:24:20.248Z,32.00
2018-07-15T16:26:48.430Z,31.90
2018-07-15T16:29:16.797Z,31.60
2018-07-15T16:31:45.015Z,31.10
2018-07-15T16:34:13.246Z,31.50
2018-07-15T16:36:41.516Z,32.40
2018-07-15T16:39:09.966Z,34.40
2018-07-15T16:41:38.174Z,36.30
2018-07-15T16:44:06.487Z,36.40
2018-07-15T16:46:34.665Z,38.00
2018-07-15T16:49:03.152Z,38.80
2018-07-15T16:51:31.692Z,39.70
2018-07-15T16:53:59.991Z,40.10
2018-07-15T16:56:28.213Z,40.10
2018-07-15T16:58:56.442Z,39.50
2018-07-15T17:03:52.628Z,40.50
2018-07-15T17:06:20.772Z,41.20
2018-07-15T17:08:49.014Z,42.00
2018-07-15T17:11:17.255Z,42.60
2018-07-15T17:13:45.486Z,43.60
2018-07-15T17:16:13.741Z,44.30
2018-07-15T17:18:41.938Z,44.70
2018-07-15T17:21:10.187Z,44.60
2018-07-15T17:23:38.379Z,44.40
2018-07-15T17:26:06.652Z,44.40
2018-07-15T17:28:34.963Z,45.50
2018-07-15T17:33:31.116Z,44.10
2018-07-15T17:35:59.268Z,43.70
2018-07-15T17:38:27.375Z,44.20
2018-07-15T17:40:55.752Z,43.30
2018-07-15T17:43:23.951Z,43.30
2018-07-15T17:45:52.167Z,43.70
2018-07-15T17:48:20.531Z,44.00
2018-07-15T17:50:48.771Z,43.70
2018-07-15T17:53:17.926Z,43.80
2018-07-15T17:55:46.079Z,44.10
2018-07-15T17:58:14.257Z,44.10
2018-07-15T18:00:42.434Z,44.60
2018-07-15T18:03:10.596Z,45.50
2018-07-15T18:05:38.747Z,45.80
2018-07-15T18:08:07.004Z,45.60
2018-07-15T18:10:35.187Z,46.00
2018-07-15T18:13:03.293Z,46.60
2018-07-15T18:15:31.382Z,47.10
2018-07-15T18:17:59.525Z,47.20
2018-07-15T18:20:27.675Z,47.60
2018-07-15T18:22:55.887Z,47.80
2018-07-15T18:25:24.035Z,48.20
2018-07-15T18:27:52.163Z,49.00
2018-07-15T18:30:20.302Z,49.20
2018-07-15T18:32:49.245Z,49.80
2018-07-15T18:35:17.415Z,50.40
2018-07-15T18:37:45.546Z,50.50
2018-07-15T18:40:13.653Z,50.00
2018-07-15T18:42:41.821Z,50.90
2018-07-15T18:45:09.927Z,51.10
2018-07-15T18:47:38.029Z,52.00
2018-07-15T18:50:06.601Z,51.70
2018-07-15T18:52:34.722Z,52.20
2018-07-15T18:55:02.891Z,52.70
2018-07-15T18:57:31.038Z,53.10
2018-07-15T18:59:59.174Z,53.70
2018-07-15T19:02:27.313Z,53.70
2018-07-15T19:04:55.457Z,53.60
2018-07-15T19:07:23.595Z,54.40
2018-07-15T19:09:51.845Z,55.20
2018-07-15T19:12:20.267Z,57.10
2018-07-15T19:14:48.526Z,58.80
2018-07-15T19:17:16.693Z,61.20
2018-07-15T19:19:44.961Z,62.50
2018-07-15T19:22:13.163Z,63.80
2018-07-15T19:24:41.358Z,65.40
2018-07-15T19:27:09.709Z,66.50
2018-07-15T19:29:37.885Z,68.10
2018-07-15T19:32:06.082Z,68.00
2018-07-15T19:34:34.318Z,69.30
2018-07-15T19:39:30.515Z,69.20
2018-07-15T19:41:58.728Z,70.00
2018-07-15T19:44:27.026Z,70.60
2018-07-15T19:46:55.193Z,73.60
2018-07-15T19:49:23.379Z,75.30
2018-07-15T19:51:51.581Z,76.20
2018-07-15T19:54:19.747Z,75.40
2018-07-15T19:56:48.003Z,73.80
2018-07-15T19:59:16.134Z,76.30
2018-07-15T20:01:44.263Z,72.20
2018-07-15T20:04:12.389Z,68.90
2018-07-15T20:06:40.532Z,67.40
2018-07-15T20:09:08.653Z,66.70
2018-07-15T20:11:36.749Z,66.00
2018-07-15T20:14:05.011Z,65.80
2018-07-15T20:16:33.158Z,70.70
2018-07-15T20:19:01.267Z,73.80
2018-07-15T20:21:29.537Z,75.00
2018-07-15T20:23:57.702Z,75.80
2018-07-15T20:26:25.901Z,76.10
2018-07-15T20:31:21.922Z,77.80
2018-07-15T20:33:50.225Z,78.90
2018-07-15T20:36:18.347Z,80.10
2018-07-15T20:38:46.442Z,81.00
2018-07-15T20:41:14.571Z,81.20
2018-07-15T20:43:42.693Z,81.60
2018-07-15T20:46:10.816Z,82.10
2018-07-15T20:48:38.985Z,82.70
2018-07-15T20:51:07.102Z,83.00
2018-07-15T20:53:35.213Z,82.50
2018-07-15T20:56:03.338Z,85.00
2018-07-15T20:58:32.114Z,85.80
2018-07-15T21:01:00.223Z,83.70
2018-07-15T21:03:34.682Z,83.60
2018-07-15T21:06:02.804Z,85.70
2018-07-15T21:08:30.938Z,86.50
2018-07-15T21:10:59.039Z,86.90
2018-07-15T21:13:27.221Z,87.30
2018-07-15T21:15:55.352Z,87.70
2018-07-15T21:18:23.803Z,87.90
2018-07-15T21:20:51.934Z,86.70
2018-07-15T21:23:20.114Z,86.30
2018-07-15T21:25:48.263Z,86.70
2018-07-15T21:28:16.377Z,87.10
2018-07-15T21:30:44.494Z,84.90
2018-07-15T21:33:12.638Z,85.80
2018-07-15T21:35:40.754Z,87.00
2018-07-15T21:38:09.003Z,89.20
2018-07-15T21:40:37.046Z,89.20
2018-07-15T21:43:05.178Z,87.70
2018-07-15T21:45:33.266Z,88.00
2018-07-15T21:48:01.360Z,87.70
2018-07-15T21:50:29.519Z,84.50
2018-07-15T21:52:57.682Z,81.90
2018-07-15T21:55:25.821Z,78.40
2018-07-15T21:57:53.934Z,77.90
2018-07-15T22:00:22.039Z,78.30
2018-07-15T22:02:56.560Z,79.00
2018-07-15T22:05:24.692Z,79.00
2018-07-15T22:08:04.170Z,82.70
2018-07-15T22:10:36.381Z,83.60
2018-07-15T22:13:04.477Z,84.30
2018-07-15T22:15:32.627Z,86.00
2018-07-15T22:18:00.754Z,87.40
2018-07-15T22:20:28.926Z,87.80
2018-07-15T22:22:57.032Z,88.60
2018-07-15T22:25:25.144Z,89.00
2018-07-15T22:27:53.261Z,88.90
2018-07-15T22:30:21.386Z,88.40
2018-07-15T22:32:49.537Z,87.90
2018-07-15T22:35:17.637Z,87.90
2018-07-15T22:37:45.770Z,87.90
2018-07-15T22:40:13.893Z,87.70
2018-07-15T22:42:42.010Z,87.50
2018-07-15T22:45:10.118Z,87.90
2018-07-15T22:47:38.244Z,89.80
2018-07-15T22:50:06.655Z,88.20
2018-07-15T22:52:34.765Z,90.20
2018-07-15T22:55:02.874Z,90.10
2018-07-15T22:57:30.996Z,90.40
2018-07-15T22:59:59.105Z,90.20
2018-07-15T23:02:27.231Z,90.10
2018-07-15T23:06:04.252Z,90.50
2018-07-15T23:08:32.954Z,90.50
2018-07-15T23:11:01.090Z,91.10
2018-07-15T23:13:29.185Z,90.80
2018-07-15T23:15:57.299Z,91.30
2018-07-15T23:18:25.434Z,92.00
2018-07-15T23:20:53.537Z,92.40
2018-07-15T23:23:21.682Z,92.80
2018-07-15T23:25:49.802Z,93.70
2018-07-15T23:28:18.270Z,93.60
2018-07-15T23:30:46.586Z,93.90
2018-07-15T23:33:14.775Z,94.10
2018-07-15T23:35:42.903Z,94.80
2018-07-15T23:38:10.994Z,95.20
2018-07-15T23:40:39.102Z,95.20
2018-07-15T23:43:07.234Z,95.30
2018-07-15T23:45:36.094Z,95.30
2018-07-15T23:48:04.221Z,95.40
2018-07-15T23:50:32.346Z,95.60
2018-07-15T23:53:00.483Z,96.10
2018-07-15T23:55:28.585Z,95.80
2018-07-15T23:57:56.730Z,96.00
